sensor_id;sensor_type;location;lat;lon;timestamp;P1;durP1;ratioP1;P2;durP2;ratioP2
2784;SDS011;57944;48.722;9.316;2023-01-23T00:02:09;39.73;;;18.63;;
2784;SDS011;57944;48.722;9.316;2023-01-23T00:04:39;34.53;;;16.23;;
2784;SDS011;57944;48.722;9.316;2023-01-23T00:07:09;36.43;;;18.10;;
2784;SDS011;57944;48.722;9.316;2023-01-23T00:09:39;33.13;;;20.37;;
2784;SDS011;57944;48.722;9.316;2023-01-23T00:12:12;27.77;;;15.60;;
2784;SDS011;57944;48.722;9.316;2023-01-23T00:14:42;36.87;;;20.00;;
2784;SDS011;57944;48.722;9.316;2023-01-23T00:17:12;34.03;;;16.30;;
2784;SDS011;57944;48.722;9.316;2023-01-23T00:19:42;29.57;;;16.17;;
2784;SDS011;57944;48.722;9.316;2023-01-23T00:22:12;33.20;;;16.43;;
2784;SDS011;57944;48.722;9.316;2023-01-23T00:24:42;29.80;;;16.10;;
2784;SDS011;57944;48.722;9.316;2023-01-23T00:27:15;29.47;;;15.47;;
2784;SDS011;57944;48.722;9.316;2023-01-23T00:29:45;31.70;;;15.50;;
2784;SDS011;57944;48.722;9.316;2023-01-23T00:32:15;26.50;;;16.53;;
2784;SDS011;57944;48.722;9.316;2023-01-23T00:34:45;25.47;;;14.90;;
2784;SDS011;57944;48.722;9.316;2023-01-23T00:37:15;30.33;;;17.30;;
2784;SDS011;57944;48.722;9.316;2023-01-23T00:39:47;29.93;;;15.63;;
2784;SDS011;57944;48.722;9.316;2023-01-23T00:42:20;32.53;;;17.07;;
2784;SDS011;57944;48.722;9.316;2023-01-23T00:44:51;29.87;;;14.93;;
2784;SDS011;57944;48.722;9.316;2023-01-23T00:47:21;23.67;;;12.63;;
2784;SDS011;57944;48.722;9.316;2023-01-23T00:49:50;29.30;;;16.30;;
2784;SDS011;57944;48.722;9.316;2023-01-23T00:52:23;28.57;;;13.73;;
2784;SDS011;57944;48.722;9.316;2023-01-23T00:54:54;26.07;;;14.23;;
2784;SDS011;57944;48.722;9.316;2023-01-23T00:57:27;25.40;;;13.97;;
2784;SDS011;57944;48.722;9.316;2023-01-23T00:59:57;29.00;;;15.83;;
2784;SDS011;57944;48.722;9.316;2023-01-23T01:02:27;25.40;;;13.30;;
2784;SDS011;57944;48.722;9.316;2023-01-23T01:04:57;23.30;;;14.30;;
2784;SDS011;57944;48.722;9.316;2023-01-23T01:07:27;27.20;;;14.07;;
2784;SDS011;57944;48.722;9.316;2023-01-23T01:09:58;28.03;;;14.50;;
2784;SDS011;57944;48.722;9.316;2023-01-23T01:12:30;29.07;;;15.20;;
2784;SDS011;57944;48.722;9.316;2023-01-23T01:15:02;26.70;;;14.60;;
2784;SDS011;57944;48.722;9.316;2023-01-23T01:17:34;29.10;;;14.50;;
2784;SDS011;57944;48.722;9.316;2023-01-23T01:20:05;23.33;;;13.80;;
2784;SDS011;57944;48.722;9.316;2023-01-23T01:22:37;26.50;;;15.93;;
2784;SDS011;57944;48.722;9.316;2023-01-23T01:25:07;26.70;;;15.80;;
2784;SDS011;57944;48.722;9.316;2023-01-23T01:27:41;30.80;;;16.47;;
2784;SDS011;57944;48.722;9.316;2023-01-23T01:30:12;26.13;;;14.20;;
2784;SDS011;57944;48.722;9.316;2023-01-23T01:32:46;24.93;;;14.60;;
2784;SDS011;57944;48.722;9.316;2023-01-23T01:35:16;30.03;;;16.23;;
2784;SDS011;57944;48.722;9.316;2023-01-23T01:37:47;23.53;;;15.83;;
2784;SDS011;57944;48.722;9.316;2023-01-23T01:42:55;27.33;;;14.80;;
2784;SDS011;57944;48.722;9.316;2023-01-23T01:48:35;28.80;;;14.50;;
2784;SDS011;57944;48.722;9.316;2023-01-23T01:51:15;29.87;;;16.10;;
2784;SDS011;57944;48.722;9.316;2023-01-23T01:53:57;30.40;;;15.23;;
2784;SDS011;57944;48.722;9.316;2023-01-23T01:56:35;33.33;;;15.10;;
2784;SDS011;57944;48.722;9.316;2023-01-23T01:59:17;26.30;;;14.37;;
2784;SDS011;57944;48.722;9.316;2023-01-23T02:01:50;29.47;;;16.40;;
2784;SDS011;57944;48.722;9.316;2023-01-23T02:04:30;26.00;;;15.30;;
2784;SDS011;57944;48.722;9.316;2023-01-23T02:07:04;36.47;;;16.20;;
2784;SDS011;57944;48.722;9.316;2023-01-23T02:09:42;26.80;;;14.00;;
2784;SDS011;57944;48.722;9.316;2023-01-23T02:12:12;23.63;;;13.90;;
2784;SDS011;57944;48.722;9.316;2023-01-23T02:14:45;24.93;;;14.43;;
2784;SDS011;57944;48.722;9.316;2023-01-23T02:17:15;27.70;;;14.90;;
2784;SDS011;57944;48.722;9.316;2023-01-23T02:19:48;31.27;;;15.10;;
2784;SDS011;57944;48.722;9.316;2023-01-23T02:22:31;28.30;;;15.47;;
2784;SDS011;57944;48.722;9.316;2023-01-23T02:25:13;22.20;;;12.30;;
2784;SDS011;57944;48.722;9.316;2023-01-23T02:27:57;21.93;;;11.80;;
2784;SDS011;57944;48.722;9.316;2023-01-23T02:30:31;22.47;;;13.70;;
2784;SDS011;57944;48.722;9.316;2023-01-23T02:33:08;23.33;;;12.73;;
2784;SDS011;57944;48.722;9.316;2023-01-23T02:35:40;22.10;;;13.27;;
2784;SDS011;57944;48.722;9.316;2023-01-23T02:38:11;27.07;;;14.30;;
2784;SDS011;57944;48.722;9.316;2023-01-23T02:40:42;26.17;;;14.23;;
2784;SDS011;57944;48.722;9.316;2023-01-23T02:43:21;25.70;;;14.10;;
2784;SDS011;57944;48.722;9.316;2023-01-23T02:46:04;27.50;;;13.53;;
2784;SDS011;57944;48.722;9.316;2023-01-23T02:48:36;24.67;;;13.53;;
2784;SDS011;57944;48.722;9.316;2023-01-23T02:51:09;28.00;;;13.90;;
2784;SDS011;57944;48.722;9.316;2023-01-23T02:53:39;19.97;;;12.23;;
2784;SDS011;57944;48.722;9.316;2023-01-23T02:56:09;24.67;;;13.43;;
2784;SDS011;57944;48.722;9.316;2023-01-23T02:58:42;27.00;;;12.47;;
2784;SDS011;57944;48.722;9.316;2023-01-23T03:01:25;27.40;;;14.70;;
2784;SDS011;57944;48.722;9.316;2023-01-23T03:03:56;25.77;;;13.77;;
2784;SDS011;57944;48.722;9.316;2023-01-23T03:06:31;25.00;;;13.73;;
2784;SDS011;57944;48.722;9.316;2023-01-23T03:09:07;25.63;;;14.40;;
2784;SDS011;57944;48.722;9.316;2023-01-23T03:11:40;25.63;;;14.27;;
2784;SDS011;57944;48.722;9.316;2023-01-23T03:14:16;25.90;;;13.57;;
2784;SDS011;57944;48.722;9.316;2023-01-23T03:16:49;26.63;;;13.90;;
2784;SDS011;57944;48.722;9.316;2023-01-23T03:19:27;26.33;;;15.50;;
2784;SDS011;57944;48.722;9.316;2023-01-23T03:21:57;25.20;;;14.40;;
2784;SDS011;57944;48.722;9.316;2023-01-23T03:24:27;25.07;;;13.23;;
2784;SDS011;57944;48.722;9.316;2023-01-23T03:26:57;24.50;;;13.30;;
2784;SDS011;57944;48.722;9.316;2023-01-23T03:29:36;25.43;;;14.73;;
2784;SDS011;57944;48.722;9.316;2023-01-23T03:32:19;27.47;;;13.67;;
2784;SDS011;57944;48.722;9.316;2023-01-23T03:34:53;29.67;;;17.77;;
2784;SDS011;57944;48.722;9.316;2023-01-23T03:37:24;24.83;;;13.60;;
2784;SDS011;57944;48.722;9.316;2023-01-23T03:39:56;26.90;;;14.50;;
2784;SDS011;57944;48.722;9.316;2023-01-23T03:42:39;24.27;;;12.30;;
2784;SDS011;57944;48.722;9.316;2023-01-23T03:45:15;21.33;;;12.07;;
2784;SDS011;57944;48.722;9.316;2023-01-23T03:47:45;33.33;;;15.47;;
2784;SDS011;57944;48.722;9.316;2023-01-23T03:50:15;23.70;;;13.40;;
2784;SDS011;57944;48.722;9.316;2023-01-23T03:52:46;27.70;;;14.40;;
2784;SDS011;57944;48.722;9.316;2023-01-23T03:55:16;30.97;;;15.40;;
2784;SDS011;57944;48.722;9.316;2023-01-23T03:57:46;30.13;;;13.70;;
2784;SDS011;57944;48.722;9.316;2023-01-23T04:00:19;25.87;;;14.83;;
2784;SDS011;57944;48.722;9.316;2023-01-23T04:02:57;26.97;;;13.73;;
2784;SDS011;57944;48.722;9.316;2023-01-23T04:05:27;23.83;;;13.33;;
2784;SDS011;57944;48.722;9.316;2023-01-23T04:07:58;27.17;;;13.47;;
2784;SDS011;57944;48.722;9.316;2023-01-23T04:10:29;29.80;;;15.77;;
2784;SDS011;57944;48.722;9.316;2023-01-23T04:13:03;20.30;;;11.77;;
2784;SDS011;57944;48.722;9.316;2023-01-23T04:15:36;24.03;;;12.77;;
2784;SDS011;57944;48.722;9.316;2023-01-23T04:18:06;27.10;;;14.30;;
2784;SDS011;57944;48.722;9.316;2023-01-23T04:20:37;31.03;;;13.57;;
2784;SDS011;57944;48.722;9.316;2023-01-23T04:23:07;24.53;;;14.27;;
2784;SDS011;57944;48.722;9.316;2023-01-23T04:25:37;26.97;;;14.40;;
2784;SDS011;57944;48.722;9.316;2023-01-23T04:28:10;23.73;;;13.53;;
2784;SDS011;57944;48.722;9.316;2023-01-23T04:30:44;25.40;;;14.43;;
2784;SDS011;57944;48.722;9.316;2023-01-23T04:33:21;26.20;;;14.10;;
2784;SDS011;57944;48.722;9.316;2023-01-23T04:35:53;28.37;;;14.50;;
2784;SDS011;57944;48.722;9.316;2023-01-23T04:38:28;24.33;;;12.13;;
2784;SDS011;57944;48.722;9.316;2023-01-23T04:41:13;27.00;;;13.90;;
2784;SDS011;57944;48.722;9.316;2023-01-23T04:43:56;26.33;;;12.60;;
2784;SDS011;57944;48.722;9.316;2023-01-23T04:47:11;30.60;;;14.50;;
2784;SDS011;57944;48.722;9.316;2023-01-23T04:49:42;25.83;;;14.20;;
2784;SDS011;57944;48.722;9.316;2023-01-23T04:52:12;27.40;;;15.10;;
2784;SDS011;57944;48.722;9.316;2023-01-23T04:54:51;21.60;;;12.67;;
2784;SDS011;57944;48.722;9.316;2023-01-23T04:57:21;27.37;;;14.57;;
2784;SDS011;57944;48.722;9.316;2023-01-23T04:59:57;24.30;;;13.17;;
2784;SDS011;57944;48.722;9.316;2023-01-23T05:02:30;25.63;;;14.10;;
2784;SDS011;57944;48.722;9.316;2023-01-23T05:05:01;23.67;;;13.70;;
2784;SDS011;57944;48.722;9.316;2023-01-23T05:07:31;24.30;;;13.13;;
2784;SDS011;57944;48.722;9.316;2023-01-23T05:10:08;26.23;;;13.50;;
2784;SDS011;57944;48.722;9.316;2023-01-23T05:12:41;22.63;;;14.50;;
2784;SDS011;57944;48.722;9.316;2023-01-23T05:15:12;21.73;;;14.23;;
2784;SDS011;57944;48.722;9.316;2023-01-23T05:17:47;25.23;;;13.20;;
2784;SDS011;57944;48.722;9.316;2023-01-23T05:20:18;25.27;;;14.17;;
2784;SDS011;57944;48.722;9.316;2023-01-23T05:22:50;28.90;;;13.70;;
2784;SDS011;57944;48.722;9.316;2023-01-23T05:25:40;25.83;;;12.53;;
2784;SDS011;57944;48.722;9.316;2023-01-23T05:28:10;29.77;;;14.67;;
2784;SDS011;57944;48.722;9.316;2023-01-23T05:30:46;24.27;;;12.87;;
2784;SDS011;57944;48.722;9.316;2023-01-23T05:33:26;28.97;;;14.20;;
2784;SDS011;57944;48.722;9.316;2023-01-23T05:35:57;30.37;;;15.40;;
2784;SDS011;57944;48.722;9.316;2023-01-23T05:38:28;30.23;;;14.77;;
2784;SDS011;57944;48.722;9.316;2023-01-23T05:40:58;26.27;;;13.50;;
2784;SDS011;57944;48.722;9.316;2023-01-23T05:43:47;25.47;;;12.00;;
2784;SDS011;57944;48.722;9.316;2023-01-23T05:46:28;28.37;;;16.03;;
2784;SDS011;57944;48.722;9.316;2023-01-23T05:49:01;36.63;;;16.43;;
2784;SDS011;57944;48.722;9.316;2023-01-23T05:51:31;27.00;;;14.13;;
2784;SDS011;57944;48.722;9.316;2023-01-23T05:54:02;27.80;;;14.37;;
2784;SDS011;57944;48.722;9.316;2023-01-23T05:56:33;29.67;;;14.53;;
2784;SDS011;57944;48.722;9.316;2023-01-23T05:59:22;30.20;;;14.73;;
2784;SDS011;57944;48.722;9.316;2023-01-23T06:02:13;29.70;;;14.50;;
2784;SDS011;57944;48.722;9.316;2023-01-23T06:05:05;30.63;;;14.07;;
2784;SDS011;57944;48.722;9.316;2023-01-23T06:08:03;34.77;;;14.90;;
2784;SDS011;57944;48.722;9.316;2023-01-23T06:10:35;24.23;;;12.67;;
2784;SDS011;57944;48.722;9.316;2023-01-23T06:13:06;27.20;;;12.70;;
2784;SDS011;57944;48.722;9.316;2023-01-23T06:15:36;24.10;;;14.30;;
2784;SDS011;57944;48.722;9.316;2023-01-23T06:18:09;40.13;;;16.17;;
2784;SDS011;57944;48.722;9.316;2023-01-23T06:20:42;28.27;;;15.03;;
2784;SDS011;57944;48.722;9.316;2023-01-23T06:23:12;28.20;;;13.83;;
2784;SDS011;57944;48.722;9.316;2023-01-23T06:25:42;25.43;;;13.87;;
2784;SDS011;57944;48.722;9.316;2023-01-23T06:28:13;26.47;;;14.50;;
2784;SDS011;57944;48.722;9.316;2023-01-23T06:30:43;30.77;;;14.37;;
2784;SDS011;57944;48.722;9.316;2023-01-23T06:33:22;28.50;;;14.60;;
2784;SDS011;57944;48.722;9.316;2023-01-23T06:35:58;30.17;;;16.27;;
2784;SDS011;57944;48.722;9.316;2023-01-23T06:38:31;28.07;;;16.27;;
2784;SDS011;57944;48.722;9.316;2023-01-23T06:41:06;31.70;;;14.60;;
2784;SDS011;57944;48.722;9.316;2023-01-23T06:43:40;28.03;;;14.57;;
2784;SDS011;57944;48.722;9.316;2023-01-23T06:46:16;32.50;;;16.67;;
2784;SDS011;57944;48.722;9.316;2023-01-23T06:48:46;28.33;;;14.70;;
2784;SDS011;57944;48.722;9.316;2023-01-23T06:51:18;30.97;;;14.23;;
2784;SDS011;57944;48.722;9.316;2023-01-23T06:53:49;28.63;;;14.90;;
2784;SDS011;57944;48.722;9.316;2023-01-23T06:56:20;33.67;;;17.30;;
2784;SDS011;57944;48.722;9.316;2023-01-23T06:58:51;24.07;;;13.13;;
2784;SDS011;57944;48.722;9.316;2023-01-23T07:01:28;28.83;;;15.10;;
2784;SDS011;57944;48.722;9.316;2023-01-23T07:04:16;33.47;;;14.77;;
2784;SDS011;57944;48.722;9.316;2023-01-23T07:06:51;26.07;;;13.60;;
2784;SDS011;57944;48.722;9.316;2023-01-23T07:09:22;31.37;;;15.30;;
2784;SDS011;57944;48.722;9.316;2023-01-23T07:12:03;32.00;;;15.30;;
2784;SDS011;57944;48.722;9.316;2023-01-23T07:14:34;26.43;;;14.73;;
2784;SDS011;57944;48.722;9.316;2023-01-23T07:17:06;30.33;;;14.87;;
2784;SDS011;57944;48.722;9.316;2023-01-23T07:19:36;33.50;;;16.80;;
2784;SDS011;57944;48.722;9.316;2023-01-23T07:22:15;29.63;;;15.60;;
2784;SDS011;57944;48.722;9.316;2023-01-23T07:24:46;31.67;;;15.97;;
2784;SDS011;57944;48.722;9.316;2023-01-23T07:27:16;28.37;;;15.70;;
2784;SDS011;57944;48.722;9.316;2023-01-23T07:29:46;26.40;;;14.90;;
2784;SDS011;57944;48.722;9.316;2023-01-23T07:32:16;27.63;;;16.70;;
2784;SDS011;57944;48.722;9.316;2023-01-23T07:34:46;31.00;;;14.73;;
2784;SDS011;57944;48.722;9.316;2023-01-23T07:37:21;28.03;;;14.13;;
2784;SDS011;57944;48.722;9.316;2023-01-23T07:39:51;26.60;;;13.90;;
2784;SDS011;57944;48.722;9.316;2023-01-23T07:42:21;25.80;;;14.17;;
2784;SDS011;57944;48.722;9.316;2023-01-23T07:44:51;32.73;;;16.13;;
2784;SDS011;57944;48.722;9.316;2023-01-23T07:47:21;33.70;;;15.50;;
2784;SDS011;57944;48.722;9.316;2023-01-23T07:49:51;26.33;;;14.50;;
2784;SDS011;57944;48.722;9.316;2023-01-23T07:52:23;31.20;;;14.40;;
2784;SDS011;57944;48.722;9.316;2023-01-23T07:54:53;27.90;;;13.10;;
2784;SDS011;57944;48.722;9.316;2023-01-23T07:57:23;34.80;;;15.40;;
2784;SDS011;57944;48.722;9.316;2023-01-23T07:59:53;24.37;;;13.30;;
2784;SDS011;57944;48.722;9.316;2023-01-23T08:02:23;36.13;;;14.30;;
2784;SDS011;57944;48.722;9.316;2023-01-23T08:04:53;30.13;;;14.57;;
2784;SDS011;57944;48.722;9.316;2023-01-23T08:07:26;31.00;;;14.03;;
2784;SDS011;57944;48.722;9.316;2023-01-23T08:09:56;32.03;;;14.67;;
2784;SDS011;57944;48.722;9.316;2023-01-23T08:12:26;34.60;;;15.57;;
2784;SDS011;57944;48.722;9.316;2023-01-23T08:14:56;22.63;;;12.50;;
2784;SDS011;57944;48.722;9.316;2023-01-23T08:17:26;34.03;;;15.93;;
2784;SDS011;57944;48.722;9.316;2023-01-23T08:19:56;26.17;;;12.37;;
2784;SDS011;57944;48.722;9.316;2023-01-23T08:22:28;28.00;;;13.83;;
2784;SDS011;57944;48.722;9.316;2023-01-23T08:24:58;26.07;;;13.97;;
2784;SDS011;57944;48.722;9.316;2023-01-23T08:27:28;28.90;;;13.23;;
2784;SDS011;57944;48.722;9.316;2023-01-23T08:29:58;40.43;;;14.80;;
2784;SDS011;57944;48.722;9.316;2023-01-23T08:32:28;32.00;;;14.00;;
2784;SDS011;57944;48.722;9.316;2023-01-23T08:34:58;25.47;;;13.37;;
2784;SDS011;57944;48.722;9.316;2023-01-23T08:37:32;20.37;;;11.53;;
2784;SDS011;57944;48.722;9.316;2023-01-23T08:40:03;32.80;;;15.53;;
2784;SDS011;57944;48.722;9.316;2023-01-23T08:42:35;33.90;;;14.47;;
2784;SDS011;57944;48.722;9.316;2023-01-23T08:45:06;31.63;;;13.80;;
2784;SDS011;57944;48.722;9.316;2023-01-23T08:47:37;27.77;;;13.90;;
2784;SDS011;57944;48.722;9.316;2023-01-23T08:50:08;37.23;;;13.83;;
2784;SDS011;57944;48.722;9.316;2023-01-23T08:52:42;33.07;;;15.90;;
2784;SDS011;57944;48.722;9.316;2023-01-23T08:55:12;27.97;;;13.07;;
2784;SDS011;57944;48.722;9.316;2023-01-23T08:57:42;26.63;;;13.90;;
2784;SDS011;57944;48.722;9.316;2023-01-23T09:00:13;29.73;;;13.23;;
2784;SDS011;57944;48.722;9.316;2023-01-23T09:02:44;31.40;;;15.43;;
2784;SDS011;57944;48.722;9.316;2023-01-23T09:05:14;28.10;;;13.30;;
2784;SDS011;57944;48.722;9.316;2023-01-23T09:07:48;22.63;;;12.83;;
2784;SDS011;57944;48.722;9.316;2023-01-23T09:10:18;26.73;;;14.33;;
2784;SDS011;57944;48.722;9.316;2023-01-23T09:12:49;24.63;;;12.17;;
2784;SDS011;57944;48.722;9.316;2023-01-23T09:15:20;21.20;;;11.27;;
2784;SDS011;57944;48.722;9.316;2023-01-23T09:17:50;23.13;;;11.77;;
2784;SDS011;57944;48.722;9.316;2023-01-23T09:20:20;24.73;;;10.03;;
2784;SDS011;57944;48.722;9.316;2023-01-23T09:22:54;20.83;;;11.60;;
2784;SDS011;57944;48.722;9.316;2023-01-23T09:25:24;18.97;;;10.97;;
2784;SDS011;57944;48.722;9.316;2023-01-23T09:27:56;20.30;;;10.40;;
2784;SDS011;57944;48.722;9.316;2023-01-23T09:30:27;22.90;;;11.57;;
2784;SDS011;57944;48.722;9.316;2023-01-23T09:32:57;25.10;;;11.77;;
2784;SDS011;57944;48.722;9.316;2023-01-23T09:35:27;19.03;;;9.30;;
2784;SDS011;57944;48.722;9.316;2023-01-23T09:38:00;16.87;;;9.27;;
2784;SDS011;57944;48.722;9.316;2023-01-23T09:40:33;15.17;;;8.03;;
2784;SDS011;57944;48.722;9.316;2023-01-23T09:43:08;20.80;;;9.27;;
2784;SDS011;57944;48.722;9.316;2023-01-23T09:45:49;17.33;;;9.87;;
2784;SDS011;57944;48.722;9.316;2023-01-23T09:48:30;22.20;;;10.40;;
2784;SDS011;57944;48.722;9.316;2023-01-23T09:51:12;15.73;;;9.00;;
2784;SDS011;57944;48.722;9.316;2023-01-23T09:53:53;14.23;;;8.37;;
2784;SDS011;57944;48.722;9.316;2023-01-23T09:56:29;20.50;;;10.20;;
2784;SDS011;57944;48.722;9.316;2023-01-23T09:59:09;21.93;;;9.97;;
2784;SDS011;57944;48.722;9.316;2023-01-23T10:01:45;17.57;;;10.80;;
2784;SDS011;57944;48.722;9.316;2023-01-23T10:04:15;19.83;;;9.77;;
2784;SDS011;57944;48.722;9.316;2023-01-23T10:06:59;17.50;;;10.20;;
2784;SDS011;57944;48.722;9.316;2023-01-23T10:10:04;17.33;;;9.07;;
2784;SDS011;57944;48.722;9.316;2023-01-23T10:13:06;14.67;;;8.73;;
2784;SDS011;57944;48.722;9.316;2023-01-23T10:15:52;12.33;;;7.67;;
2784;SDS011;57944;48.722;9.316;2023-01-23T10:18:40;20.20;;;9.33;;
2784;SDS011;57944;48.722;9.316;2023-01-23T10:21:34;15.93;;;9.57;;
2784;SDS011;57944;48.722;9.316;2023-01-23T10:24:23;18.93;;;8.27;;
2784;SDS011;57944;48.722;9.316;2023-01-23T10:27:16;18.40;;;8.50;;
2784;SDS011;57944;48.722;9.316;2023-01-23T10:29:49;18.30;;;9.50;;
2784;SDS011;57944;48.722;9.316;2023-01-23T10:32:27;18.30;;;10.40;;
2784;SDS011;57944;48.722;9.316;2023-01-23T10:35:00;14.37;;;8.83;;
2784;SDS011;57944;48.722;9.316;2023-01-23T10:37:38;17.17;;;9.10;;
2784;SDS011;57944;48.722;9.316;2023-01-23T10:40:16;19.30;;;10.00;;
2784;SDS011;57944;48.722;9.316;2023-01-23T10:43:13;15.97;;;9.90;;
2784;SDS011;57944;48.722;9.316;2023-01-23T10:45:46;20.13;;;10.13;;
2784;SDS011;57944;48.722;9.316;2023-01-23T10:48:28;19.83;;;9.00;;
2784;SDS011;57944;48.722;9.316;2023-01-23T10:54:04;16.67;;;10.60;;
2784;SDS011;57944;48.722;9.316;2023-01-23T10:56:57;18.07;;;9.97;;
2784;SDS011;57944;48.722;9.316;2023-01-23T10:59:33;20.97;;;9.60;;
2784;SDS011;57944;48.722;9.316;2023-01-23T11:02:18;15.20;;;8.90;;
2784;SDS011;57944;48.722;9.316;2023-01-23T11:04:54;18.67;;;10.80;;
2784;SDS011;57944;48.722;9.316;2023-01-23T11:07:25;18.57;;;9.70;;
2784;SDS011;57944;48.722;9.316;2023-01-23T11:09:59;19.67;;;9.83;;
2784;SDS011;57944;48.722;9.316;2023-01-23T11:12:46;14.23;;;7.83;;
2784;SDS011;57944;48.722;9.316;2023-01-23T11:15:22;13.10;;;8.27;;
2784;SDS011;57944;48.722;9.316;2023-01-23T11:17:55;21.27;;;9.47;;
2784;SDS011;57944;48.722;9.316;2023-01-23T11:20:29;17.97;;;9.47;;
2784;SDS011;57944;48.722;9.316;2023-01-23T11:23:04;18.60;;;10.80;;
2784;SDS011;57944;48.722;9.316;2023-01-23T11:25:44;17.83;;;9.77;;
2784;SDS011;57944;48.722;9.316;2023-01-23T11:28:17;18.23;;;9.40;;
2784;SDS011;57944;48.722;9.316;2023-01-23T11:30:56;19.30;;;11.50;;
2784;SDS011;57944;48.722;9.316;2023-01-23T11:33:41;23.60;;;12.60;;
2784;SDS011;57944;48.722;9.316;2023-01-23T11:39:18;20.33;;;10.47;;
2784;SDS011;57944;48.722;9.316;2023-01-23T11:42:11;18.97;;;10.63;;
2784;SDS011;57944;48.722;9.316;2023-01-23T11:44:44;19.50;;;9.90;;
2784;SDS011;57944;48.722;9.316;2023-01-23T11:47:28;15.33;;;9.10;;
2784;SDS011;57944;48.722;9.316;2023-01-23T11:50:34;18.27;;;10.37;;
2784;SDS011;57944;48.722;9.316;2023-01-23T11:53:23;18.60;;;10.47;;
2784;SDS011;57944;48.722;9.316;2023-01-23T11:56:16;21.27;;;10.30;;
2784;SDS011;57944;48.722;9.316;2023-01-23T11:59:29;20.30;;;10.43;;
2784;SDS011;57944;48.722;9.316;2023-01-23T12:02:30;18.37;;;11.00;;
2784;SDS011;57944;48.722;9.316;2023-01-23T12:05:43;18.53;;;10.23;;
2784;SDS011;57944;48.722;9.316;2023-01-23T12:08:46;16.80;;;9.37;;
2784;SDS011;57944;48.722;9.316;2023-01-23T12:11:30;20.00;;;10.30;;
2784;SDS011;57944;48.722;9.316;2023-01-23T12:14:14;21.03;;;10.83;;
2784;SDS011;57944;48.722;9.316;2023-01-23T12:16:56;20.07;;;10.97;;
2784;SDS011;57944;48.722;9.316;2023-01-23T12:19:48;22.83;;;10.90;;
2784;SDS011;57944;48.722;9.316;2023-01-23T12:22:46;18.17;;;11.93;;
2784;SDS011;57944;48.722;9.316;2023-01-23T12:25:33;17.23;;;9.87;;
2784;SDS011;57944;48.722;9.316;2023-01-23T12:28:10;19.67;;;10.90;;
2784;SDS011;57944;48.722;9.316;2023-01-23T12:31:06;17.43;;;9.57;;
2784;SDS011;57944;48.722;9.316;2023-01-23T12:33:58;18.47;;;9.63;;
2784;SDS011;57944;48.722;9.316;2023-01-23T12:36:55;21.60;;;10.77;;
2784;SDS011;57944;48.722;9.316;2023-01-23T12:40:00;17.67;;;10.43;;
2784;SDS011;57944;48.722;9.316;2023-01-23T12:42:41;25.53;;;10.50;;
2784;SDS011;57944;48.722;9.316;2023-01-23T12:45:20;22.80;;;10.50;;
2784;SDS011;57944;48.722;9.316;2023-01-23T12:47:54;19.40;;;11.33;;
2784;SDS011;57944;48.722;9.316;2023-01-23T12:50:36;16.67;;;8.80;;
2784;SDS011;57944;48.722;9.316;2023-01-23T12:53:17;18.47;;;10.70;;
2784;SDS011;57944;48.722;9.316;2023-01-23T12:55:53;18.77;;;10.80;;
2784;SDS011;57944;48.722;9.316;2023-01-23T12:58:31;22.67;;;10.33;;
2784;SDS011;57944;48.722;9.316;2023-01-23T13:01:10;17.17;;;10.00;;
2784;SDS011;57944;48.722;9.316;2023-01-23T13:07:07;15.10;;;8.90;;
2784;SDS011;57944;48.722;9.316;2023-01-23T13:09:59;19.67;;;9.23;;
2784;SDS011;57944;48.722;9.316;2023-01-23T13:12:52;23.37;;;12.17;;
2784;SDS011;57944;48.722;9.316;2023-01-23T13:15:30;21.53;;;11.73;;
2784;SDS011;57944;48.722;9.316;2023-01-23T13:18:16;21.27;;;10.90;;
2784;SDS011;57944;48.722;9.316;2023-01-23T13:20:55;19.53;;;11.40;;
2784;SDS011;57944;48.722;9.316;2023-01-23T13:23:40;15.40;;;9.33;;
2784;SDS011;57944;48.722;9.316;2023-01-23T13:29:45;17.90;;;10.43;;
2784;SDS011;57944;48.722;9.316;2023-01-23T13:32:19;21.70;;;8.90;;
2784;SDS011;57944;48.722;9.316;2023-01-23T13:34:50;17.10;;;10.07;;
2784;SDS011;57944;48.722;9.316;2023-01-23T13:37:31;21.40;;;9.30;;
2784;SDS011;57944;48.722;9.316;2023-01-23T13:40:22;16.03;;;8.33;;
2784;SDS011;57944;48.722;9.316;2023-01-23T13:42:55;12.57;;;8.20;;
2784;SDS011;57944;48.722;9.316;2023-01-23T13:45:26;16.10;;;9.03;;
2784;SDS011;57944;48.722;9.316;2023-01-23T13:48:04;17.83;;;7.97;;
2784;SDS011;57944;48.722;9.316;2023-01-23T13:51:31;20.03;;;9.10;;
2784;SDS011;57944;48.722;9.316;2023-01-23T13:54:17;21.50;;;9.93;;
2784;SDS011;57944;48.722;9.316;2023-01-23T13:57:20;19.50;;;8.50;;
2784;SDS011;57944;48.722;9.316;2023-01-23T14:00:10;16.00;;;8.50;;
2784;SDS011;57944;48.722;9.316;2023-01-23T14:03:07;16.20;;;9.07;;
2784;SDS011;57944;48.722;9.316;2023-01-23T14:15:50;17.03;;;9.20;;
2784;SDS011;57944;48.722;9.316;2023-01-23T14:19:03;16.20;;;9.03;;
2784;SDS011;57944;48.722;9.316;2023-01-23T14:21:48;13.30;;;7.90;;
2784;SDS011;57944;48.722;9.316;2023-01-23T14:24:21;19.60;;;9.13;;
2784;SDS011;57944;48.722;9.316;2023-01-23T14:26:58;15.20;;;8.03;;
2784;SDS011;57944;48.722;9.316;2023-01-23T14:29:36;18.67;;;10.07;;
2784;SDS011;57944;48.722;9.316;2023-01-23T14:34:58;10.50;;;6.97;;
2784;SDS011;57944;48.722;9.316;2023-01-23T14:37:28;12.33;;;7.23;;
2784;SDS011;57944;48.722;9.316;2023-01-23T14:40:03;13.13;;;7.73;;
2784;SDS011;57944;48.722;9.316;2023-01-23T14:42:53;10.07;;;6.73;;
2784;SDS011;57944;48.722;9.316;2023-01-23T14:45:29;16.90;;;7.93;;
2784;SDS011;57944;48.722;9.316;2023-01-23T14:48:04;16.87;;;9.67;;
2784;SDS011;57944;48.722;9.316;2023-01-23T14:50:42;19.30;;;8.73;;
2784;SDS011;57944;48.722;9.316;2023-01-23T14:53:14;13.20;;;7.13;;
2784;SDS011;57944;48.722;9.316;2023-01-23T14:55:45;18.57;;;7.40;;
2784;SDS011;57944;48.722;9.316;2023-01-23T14:58:20;16.00;;;6.60;;
2784;SDS011;57944;48.722;9.316;2023-01-23T15:00:53;12.30;;;7.43;;
2784;SDS011;57944;48.722;9.316;2023-01-23T15:03:38;17.63;;;8.37;;
2784;SDS011;57944;48.722;9.316;2023-01-23T15:06:13;14.20;;;7.47;;
2784;SDS011;57944;48.722;9.316;2023-01-23T15:08:48;13.30;;;8.77;;
2784;SDS011;57944;48.722;9.316;2023-01-23T15:11:23;17.30;;;8.67;;
2784;SDS011;57944;48.722;9.316;2023-01-23T15:13:56;12.43;;;7.70;;
2784;SDS011;57944;48.722;9.316;2023-01-23T15:16:30;14.67;;;8.00;;
2784;SDS011;57944;48.722;9.316;2023-01-23T15:19:15;17.87;;;9.50;;
2784;SDS011;57944;48.722;9.316;2023-01-23T15:21:49;23.00;;;9.87;;
2784;SDS011;57944;48.722;9.316;2023-01-23T15:24:35;16.73;;;10.53;;
2784;SDS011;57944;48.722;9.316;2023-01-23T15:27:21;15.20;;;7.87;;
2784;SDS011;57944;48.722;9.316;2023-01-23T15:33:22;23.97;;;11.60;;
2784;SDS011;57944;48.722;9.316;2023-01-23T15:36:05;13.57;;;10.00;;
2784;SDS011;57944;48.722;9.316;2023-01-23T15:38:52;15.80;;;9.83;;
2784;SDS011;57944;48.722;9.316;2023-01-23T15:41:38;16.97;;;9.97;;
2784;SDS011;57944;48.722;9.316;2023-01-23T15:44:13;18.27;;;10.97;;
2784;SDS011;57944;48.722;9.316;2023-01-23T15:46:45;20.40;;;10.20;;
2784;SDS011;57944;48.722;9.316;2023-01-23T15:49:17;17.87;;;9.07;;
2784;SDS011;57944;48.722;9.316;2023-01-23T15:51:56;21.87;;;12.80;;
2784;SDS011;57944;48.722;9.316;2023-01-23T15:54:30;23.17;;;11.90;;
2784;SDS011;57944;48.722;9.316;2023-01-23T15:57:03;14.17;;;6.57;;
2784;SDS011;57944;48.722;9.316;2023-01-23T15:59:34;19.57;;;9.90;;
2784;SDS011;57944;48.722;9.316;2023-01-23T16:02:06;19.27;;;10.77;;
2784;SDS011;57944;48.722;9.316;2023-01-23T16:04:55;19.57;;;12.17;;
2784;SDS011;57944;48.722;9.316;2023-01-23T16:07:31;20.73;;;9.87;;
2784;SDS011;57944;48.722;9.316;2023-01-23T16:10:04;17.30;;;10.27;;